Time;durP1;ratioP1;P1;durP2;ratioP2;P2;SDS_P1;SDS_P2;PMS_P1;PMS_P2;Temp;Humidity;BMP_temperature;BMP_pressure;BME280_temperature;BME280_humidity;BME280_pressure;Samples;Min_cycle;Max_cycle;Signal;HPM_P1;HPM_P2
2021/12/25 00:01:22;;;;;;;16.17;12.87;;;4.00;99.90;;;;;;5055964;28;20721;-79
2021/12/25 00:03:51;;;;;;;15.80;12.77;;;4.00;99.90;;;;;;5055223;28;20211;-79
2021/12/25 00:06:17;;;;;;;15.73;13.00;;;4.00;99.90;;;;;;5054543;28;20185;-81
2021/12/25 00:08:42;;;;;;;15.97;12.53;;;4.00;99.90;;;;;;5055172;28;20179;-79
2021/12/25 00:11:10;;;;;;;15.17;12.47;;;3.90;99.90;;;;;;5054780;28;20546;-80
2021/12/25 00:13:37;;;;;;;15.57;12.73;;;3.90;99.90;;;;;;5054782;28;20207;-79
2021/12/25 00:16:04;;;;;;;16.07;12.07;;;3.80;99.90;;;;;;5055276;28;20369;-79
2021/12/25 00:18:30;;;;;;;15.03;12.60;;;3.80;99.90;;;;;;5055117;28;20244;-79
2021/12/25 00:20:56;;;;;;;13.97;12.13;;;3.70;99.90;;;;;;5057235;28;20210;-79
2021/12/25 00:23:23;;;;;;;14.97;12.17;;;3.70;99.90;;;;;;5054594;28;20305;-79
2021/12/25 00:25:55;;;;;;;13.33;11.53;;;3.70;99.90;;;;;;5056264;28;20340;-79
2021/12/25 00:33:46;;;;;;;15.07;12.03;;;3.60;99.90;;;;;;5061153;28;20202;-81
2021/12/25 00:36:18;;;;;;;13.30;11.10;;;3.50;99.90;;;;;;5059459;28;20182;-81
2021/12/25 00:38:44;;;;;;;14.07;11.43;;;3.50;99.90;;;;;;5059168;28;20232;-80
2021/12/25 00:41:12;;;;;;;14.20;11.40;;;3.50;99.90;;;;;;5058706;28;20189;-81
2021/12/25 00:43:38;;;;;;;15.10;12.13;;;3.50;99.90;;;;;;5059186;28;20213;-81
2021/12/25 00:46:04;;;;;;;13.47;11.27;;;3.40;99.90;;;;;;5062210;28;20175;-81
2021/12/25 00:48:30;;;;;;;15.50;12.53;;;3.40;99.90;;;;;;5069186;28;20212;-81
2021/12/25 00:50:56;;;;;;;15.03;11.90;;;3.40;99.90;;;;;;5065640;28;20174;-81
2021/12/25 00:53:22;;;;;;;14.10;11.60;;;3.40;99.90;;;;;;5062343;28;20262;-81
2021/12/25 00:55:48;;;;;;;14.87;11.87;;;3.40;99.90;;;;;;5060756;28;20561;-81
2021/12/25 00:58:14;;;;;;;16.87;12.70;;;3.40;99.90;;;;;;5060384;28;20182;-81
2021/12/25 01:00:40;;;;;;;15.50;12.03;;;3.30;99.90;;;;;;5060866;28;20273;-81
2021/12/25 01:03:06;;;;;;;19.40;12.83;;;3.40;99.90;;;;;;5057544;28;20212;-79
2021/12/25 01:05:32;;;;;;;17.23;13.13;;;3.40;99.90;;;;;;5054510;28;20187;-79
2021/12/25 01:07:58;;;;;;;17.20;13.43;;;3.30;99.90;;;;;;5058235;28;20647;-79
2021/12/25 01:10:24;;;;;;;16.63;12.80;;;3.30;99.90;;;;;;5062731;28;20178;-79
2021/12/25 01:13:02;;;;;;;16.37;13.03;;;3.30;99.90;;;;;;5063488;28;20166;-79
2021/12/25 01:21:32;;;;;;;18.53;13.40;;;3.30;99.90;;;;;;5063716;28;20672;-79
2021/12/25 01:32:15;;;;;;;19.17;14.10;;;3.20;99.90;;;;;;5063787;28;20186;-79
2021/12/25 01:40:09;;;;;;;20.57;15.13;;;3.00;99.90;;;;;;5062668;28;20166;-79
2021/12/25 01:47:49;;;;;;;21.77;16.03;;;3.00;99.90;;;;;;5064490;28;20185;-79
2021/12/25 01:49:56;;;;;;;22.73;17.20;;;3.00;99.90;;;;;;5057217;28;20255;-79
2021/12/25 01:52:26;;;;;;;23.83;17.67;;;3.10;99.90;;;;;;5063266;28;20174;-80
2021/12/25 01:54:54;;;;;;;20.53;16.07;;;3.00;99.90;;;;;;5064068;28;20198;-80
2021/12/25 01:57:21;;;;;;;22.40;16.17;;;3.10;99.90;;;;;;5062481;28;20228;-80
2021/12/25 01:59:47;;;;;;;20.40;15.83;;;3.10;99.90;;;;;;5062321;28;20646;-80
2021/12/25 02:02:14;;;;;;;24.47;16.63;;;3.00;99.90;;;;;;5062163;28;20189;-80
2021/12/25 02:04:40;;;;;;;21.30;16.80;;;2.90;99.90;;;;;;5061765;28;20264;-80
2021/12/25 02:07:06;;;;;;;24.17;18.20;;;2.90;99.90;;;;;;5061763;28;20274;-81
2021/12/25 02:09:32;;;;;;;22.73;17.10;;;2.90;99.90;;;;;;5062847;28;20288;-81
2021/12/25 02:11:58;;;;;;;24.77;18.73;;;2.90;99.90;;;;;;5062403;28;20178;-81
2021/12/25 02:14:24;;;;;;;27.27;19.37;;;2.90;99.90;;;;;;5061188;28;20213;-80
2021/12/25 02:16:55;;;;;;;25.43;18.47;;;2.80;99.90;;;;;;5063134;28;20178;-81
2021/12/25 02:19:35;;;;;;;25.13;18.83;;;2.80;99.90;;;;;;5058722;28;20594;-80
2021/12/25 02:22:02;;;;;;;23.37;17.53;;;2.80;99.90;;;;;;5056674;28;20178;-80
2021/12/25 02:24:29;;;;;;;28.27;18.77;;;2.80;99.90;;;;;;5055721;28;20214;-79
2021/12/25 02:26:55;;;;;;;23.53;18.17;;;2.80;99.90;;;;;;5058466;28;20541;-80
2021/12/25 02:29:21;;;;;;;24.90;18.27;;;2.70;99.90;;;;;;5057042;28;20603;-80
2021/12/25 02:31:47;;;;;;;23.43;17.53;;;2.70;99.90;;;;;;5057447;28;20190;-80
2021/12/25 02:34:14;;;;;;;23.30;18.00;;;2.70;99.90;;;;;;5058542;28;20570;-80
2021/12/25 02:36:40;;;;;;;23.13;17.57;;;2.60;99.90;;;;;;5057854;28;20673;-80
2021/12/25 02:39:06;;;;;;;25.57;18.33;;;2.60;99.90;;;;;;5056390;28;20178;-80
2021/12/25 02:41:32;;;;;;;23.53;18.23;;;2.50;99.90;;;;;;5057235;28;20620;-80
2021/12/25 02:43:57;;;;;;;23.50;16.97;;;2.60;99.90;;;;;;5057159;28;20229;-80
2021/12/25 02:46:24;;;;;;;22.47;17.10;;;2.50;99.90;;;;;;5056920;28;20170;-80
2021/12/25 02:48:52;;;;;;;23.10;18.27;;;2.50;99.90;;;;;;5056075;28;20174;-80
2021/12/25 02:51:18;;;;;;;22.53;17.77;;;2.50;99.90;;;;;;5057344;28;20175;-80
2021/12/25 02:53:44;;;;;;;23.53;18.23;;;2.50;99.90;;;;;;5058689;28;20286;-79
2021/12/25 02:56:10;;;;;;;26.10;18.77;;;2.50;99.90;;;;;;5057807;28;20635;-80
2021/12/25 02:58:36;;;;;;;26.20;17.97;;;2.50;99.90;;;;;;5057933;28;20606;-79
2021/12/25 03:01:12;;;;;;;24.57;18.50;;;2.50;99.90;;;;;;5059512;28;20249;-79
2021/12/25 03:03:38;;;;;;;26.03;19.00;;;2.50;99.90;;;;;;5058411;28;20271;-80
2021/12/25 03:06:06;;;;;;;26.80;18.90;;;2.40;99.90;;;;;;5057841;28;20703;-80
2021/12/25 03:08:32;;;;;;;25.97;18.00;;;2.40;99.90;;;;;;5058330;28;20167;-80
2021/12/25 03:10:59;;;;;;;25.37;17.97;;;2.40;99.90;;;;;;5058230;28;20170;-80
2021/12/25 03:13:45;;;;;;;27.13;18.23;;;2.40;99.90;;;;;;5057760;28;20198;-79
2021/12/25 03:16:13;;;;;;;24.87;19.77;;;2.50;99.90;;;;;;5056333;28;20171;-80
2021/12/25 03:18:49;;;;;;;25.20;18.63;;;2.40;99.90;;;;;;5057980;28;20185;-80
2021/12/25 03:21:18;;;;;;;27.23;19.40;;;2.40;99.90;;;;;;5056054;28;20643;-80
2021/12/25 03:23:45;;;;;;;26.17;19.23;;;2.40;99.90;;;;;;5057687;28;20214;-80
2021/12/25 03:26:12;;;;;;;25.67;19.40;;;2.40;99.90;;;;;;5056099;28;20186;-79
2021/12/25 03:28:42;;;;;;;25.77;18.80;;;2.40;99.90;;;;;;5056229;28;20182;-79
2021/12/25 03:31:15;;;;;;;25.53;19.23;;;2.30;99.90;;;;;;5055718;28;20179;-80
2021/12/25 03:33:42;;;;;;;25.50;19.03;;;2.40;99.90;;;;;;5054656;28;20206;-80
2021/12/25 03:36:08;;;;;;;28.90;19.80;;;2.40;99.90;;;;;;5056536;28;20261;-80
2021/12/25 03:38:33;;;;;;;24.07;18.57;;;2.40;99.90;;;;;;5056644;28;20216;-80
2021/12/25 03:41:00;;;;;;;30.93;19.53;;;2.40;99.90;;;;;;5055411;28;20698;-80
2021/12/25 03:43:26;;;;;;;25.07;18.73;;;2.40;99.90;;;;;;5056123;28;20218;-80
2021/12/25 03:45:52;;;;;;;24.80;18.87;;;2.40;99.90;;;;;;5058016;28;20628;-80
2021/12/25 03:59:00;;;;;;;24.40;17.53;;;2.20;99.90;;;;;;5058984;28;20223;-78
2021/12/25 04:01:41;;;;;;;26.17;18.73;;;2.10;99.90;;;;;;5056917;28;20623;-78
2021/12/25 04:04:18;;;;;;;24.27;18.10;;;2.10;99.90;;;;;;5058041;28;20202;-79
2021/12/25 04:06:53;;;;;;;25.50;18.00;;;2.10;99.90;;;;;;5056134;28;20186;-78
2021/12/25 04:11:48;;;;;;;25.17;17.70;;;2.00;99.90;;;;;;5056895;28;20165;-79
2021/12/25 04:14:14;;;;;;;24.07;17.03;;;2.00;99.90;;;;;;5057050;28;20201;-79
2021/12/25 04:16:40;;;;;;;24.77;17.57;;;2.00;99.90;;;;;;5057176;28;20178;-78
2021/12/25 04:19:06;;;;;;;21.43;16.50;;;1.90;99.90;;;;;;5057018;28;20182;-79
2021/12/25 04:21:32;;;;;;;21.37;16.77;;;1.90;99.90;;;;;;5058585;28;20544;-79
2021/12/25 04:23:58;;;;;;;23.77;17.10;;;1.90;99.90;;;;;;5059878;28;20210;-79
2021/12/25 04:26:25;;;;;;;21.37;17.27;;;1.90;99.90;;;;;;5064753;28;20190;-80
2021/12/25 04:31:33;;;;;;;21.27;16.33;;;2.00;99.90;;;;;;5059734;28;20162;-81
2021/12/25 05:04:01;;;;;;;26.57;18.43;;;1.70;99.90;;;;;;5060049;28;20221;-79
2021/12/25 05:06:27;;;;;;;25.37;18.27;;;1.70;99.90;;;;;;5058036;28;20170;-79
2021/12/25 05:08:55;;;;;;;24.40;18.27;;;1.70;99.90;;;;;;5059213;28;20548;-79
2021/12/25 05:11:21;;;;;;;24.00;17.50;;;1.70;99.90;;;;;;5058158;28;20551;-79
2021/12/25 05:13:49;;;;;;;22.40;17.13;;;1.70;99.90;;;;;;5058128;28;20205;-79
2021/12/25 05:16:19;;;;;;;22.63;17.83;;;1.70;99.90;;;;;;5058184;28;20320;-79
2021/12/25 05:18:46;;;;;;;25.33;17.77;;;1.60;99.90;;;;;;5058033;28;20180;-79
2021/12/25 05:21:14;;;;;;;21.97;17.17;;;1.60;99.90;;;;;;5064548;28;20599;-80
2021/12/25 05:23:40;;;;;;;22.57;16.63;;;1.60;99.90;;;;;;5062027;28;20229;-80
2021/12/25 05:26:06;;;;;;;21.03;16.33;;;1.60;99.90;;;;;;5061361;28;20190;-80
2021/12/25 05:28:40;;;;;;;22.57;16.50;;;1.60;99.90;;;;;;5061458;28;20170;-79
2021/12/25 05:31:08;;;;;;;19.37;15.90;;;1.60;99.90;;;;;;5059903;28;20555;-79
2021/12/25 05:33:34;;;;;;;23.27;16.70;;;1.60;99.90;;;;;;5058823;28;20378;-79
2021/12/25 05:36:00;;;;;;;24.17;16.53;;;1.50;99.90;;;;;;5057308;28;20174;-79
2021/12/25 05:38:26;;;;;;;22.93;15.40;;;1.50;99.90;;;;;;5058140;28;20201;-79
2021/12/25 05:40:53;;;;;;;20.23;16.00;;;1.50;99.90;;;;;;5056441;28;20182;-79
2021/12/25 05:43:19;;;;;;;23.77;16.50;;;1.50;99.90;;;;;;5056095;28;20210;-79
2021/12/25 05:45:45;;;;;;;19.87;15.90;;;1.50;99.90;;;;;;5056732;28;20192;-79
2021/12/25 05:48:12;;;;;;;20.13;15.63;;;1.50;99.90;;;;;;5056799;28;20182;-79
2021/12/25 05:50:37;;;;;;;18.43;15.23;;;1.50;99.90;;;;;;5057396;28;20167;-79
2021/12/25 05:53:04;;;;;;;18.90;15.20;;;1.50;99.90;;;;;;5056140;28;20188;-78
2021/12/25 05:55:30;;;;;;;18.97;14.73;;;1.50;99.90;;;;;;5057978;28;20529;-79
2021/12/25 05:57:56;;;;;;;18.53;14.90;;;1.50;99.90;;;;;;5059121;28;20184;-79
2021/12/25 06:00:23;;;;;;;18.03;15.43;;;1.50;99.90;;;;;;5059321;28;20175;-79
2021/12/25 06:02:49;;;;;;;21.33;15.50;;;1.50;99.90;;;;;;5059400;28;20178;-79
2021/12/25 06:05:15;;;;;;;19.03;15.27;;;1.50;99.90;;;;;;5056104;28;20340;-79
2021/12/25 06:07:41;;;;;;;17.77;14.87;;;1.40;99.90;;;;;;5056288;28;20166;-79
2021/12/25 06:10:09;;;;;;;18.07;15.00;;;1.40;99.90;;;;;;5055908;28;20186;-80
2021/12/25 06:12:37;;;;;;;18.43;15.20;;;1.50;99.90;;;;;;5055725;28;20178;-79
2021/12/25 06:15:06;;;;;;;18.27;14.97;;;1.40;99.90;;;;;;5055218;28;20202;-79
2021/12/25 06:17:31;;;;;;;18.80;15.13;;;1.40;99.90;;;;;;5055513;28;20182;-79
2021/12/25 06:19:57;;;;;;;17.97;14.50;;;1.40;99.90;;;;;;5057095;28;20174;-79
2021/12/25 06:22:23;;;;;;;17.03;14.63;;;1.40;99.90;;;;;;5057208;28;20175;-80
2021/12/25 06:24:49;;;;;;;16.63;14.40;;;1.40;99.90;;;;;;5056115;28;20715;-79
2021/12/25 06:27:17;;;;;;;18.23;15.27;;;1.40;99.90;;;;;;5056450;28;20203;-79
2021/12/25 06:29:44;;;;;;;17.30;13.83;;;1.40;99.90;;;;;;5056521;28;20261;-79
2021/12/25 06:32:10;;;;;;;15.40;13.80;;;1.40;99.90;;;;;;5056250;28;20533;-79
2021/12/25 06:34:36;;;;;;;15.20;13.60;;;1.40;99.90;;;;;;5056154;28;20198;-79
2021/12/25 06:37:02;;;;;;;17.50;14.47;;;1.40;99.90;;;;;;5056179;28;20235;-80
2021/12/25 06:39:28;;;;;;;16.80;14.43;;;1.30;99.90;;;;;;5058112;28;20549;-80
2021/12/25 06:41:54;;;;;;;18.17;13.73;;;1.40;99.90;;;;;;5057439;28;20236;-80
2021/12/25 06:44:23;;;;;;;17.73;13.63;;;1.40;99.90;;;;;;5056178;28;20625;-80
2021/12/25 06:46:49;;;;;;;16.33;13.70;;;1.40;99.90;;;;;;5056204;28;20602;-80
2021/12/25 06:49:15;;;;;;;16.00;13.97;;;1.30;99.90;;;;;;5056201;28;20183;-80
2021/12/25 06:51:41;;;;;;;16.20;12.93;;;1.30;99.90;;;;;;5056469;28;20178;-80
2021/12/25 06:54:07;;;;;;;16.00;14.13;;;1.30;99.90;;;;;;5056008;28;20289;-81
2021/12/25 06:56:33;;;;;;;18.20;13.50;;;1.30;99.90;;;;;;5057488;28;20174;-80
2021/12/25 06:58:58;;;;;;;18.03;14.23;;;1.20;99.90;;;;;;5055708;28;20186;-80
2021/12/25 07:01:24;;;;;;;16.57;14.20;;;1.20;99.90;;;;;;5056973;28;20202;-80
2021/12/25 07:03:50;;;;;;;17.40;14.77;;;1.20;99.90;;;;;;5055723;28;20279;-80
2021/12/25 07:06:16;;;;;;;15.50;13.90;;;1.20;99.90;;;;;;5055294;28;20183;-80
2021/12/25 07:08:42;;;;;;;18.30;14.87;;;1.20;99.90;;;;;;5060257;28;20273;-80
2021/12/25 07:11:08;;;;;;;19.50;14.33;;;1.20;99.90;;;;;;5062966;28;20218;-80
2021/12/25 07:13:33;;;;;;;19.17;15.83;;;1.10;99.90;;;;;;5064459;28;20194;-80
2021/12/25 07:15:59;;;;;;;18.03;14.50;;;1.10;99.90;;;;;;5060851;28;20179;-80
2021/12/25 07:18:25;;;;;;;18.07;15.73;;;1.10;99.90;;;;;;5062228;28;20228;-79
2021/12/25 07:20:51;;;;;;;18.73;15.70;;;1.10;99.90;;;;;;5058400;28;20179;-79
2021/12/25 07:23:18;;;;;;;20.40;14.77;;;1.10;99.90;;;;;;5058887;28;20202;-79
2021/12/25 07:25:44;;;;;;;19.20;15.40;;;1.10;99.90;;;;;;5057716;28;20197;-79
2021/12/25 07:28:09;;;;;;;18.50;15.47;;;1.10;99.90;;;;;;5057322;28;20248;-80
2021/12/25 07:30:35;;;;;;;20.27;15.93;;;1.10;99.90;;;;;;5057659;28;20179;-80
2021/12/25 07:33:02;;;;;;;20.73;16.03;;;1.10;99.90;;;;;;5058692;28;20159;-80
2021/12/25 07:35:27;;;;;;;22.17;16.37;;;1.00;99.90;;;;;;5056236;28;20178;-79
2021/12/25 07:37:54;;;;;;;22.57;16.77;;;1.00;99.90;;;;;;5056601;28;20171;-79
2021/12/25 07:40:20;;;;;;;24.40;16.07;;;1.00;99.90;;;;;;5055876;28;20175;-79
2021/12/25 07:42:45;;;;;;;20.87;16.80;;;1.10;99.90;;;;;;5055575;28;20174;-79
2021/12/25 07:45:12;;;;;;;19.57;15.93;;;1.10;99.90;;;;;;5055333;28;20568;-79
2021/12/25 07:47:45;;;;;;;17.67;14.80;;;1.00;99.90;;;;;;5056204;28;20182;-79
2021/12/25 07:50:11;;;;;;;16.97;14.37;;;1.00;99.90;;;;;;5056644;28;20166;-79
2021/12/25 07:52:36;;;;;;;18.93;14.43;;;1.00;99.90;;;;;;5055351;28;20183;-79
2021/12/25 07:55:03;;;;;;;16.83;14.57;;;0.90;99.90;;;;;;5055388;28;20204;-79
2021/12/25 07:57:28;;;;;;;18.40;14.67;;;0.90;99.90;;;;;;5054934;28;20246;-79
2021/12/25 07:59:55;;;;;;;19.80;15.20;;;0.90;99.90;;;;;;5054827;28;20209;-79
2021/12/25 08:02:21;;;;;;;16.57;14.77;;;0.90;99.90;;;;;;5058937;28;20213;-81
2021/12/25 08:04:47;;;;;;;19.30;15.20;;;1.00;99.90;;;;;;5065614;28;20211;-80
2021/12/25 08:07:12;;;;;;;19.30;15.57;;;1.00;99.90;;;;;;5059112;28;20185;-81
2021/12/25 08:09:38;;;;;;;15.93;13.73;;;1.00;99.90;;;;;;5056003;28;20175;-80
2021/12/25 08:12:05;;;;;;;17.83;13.43;;;0.90;99.90;;;;;;5061197;28;20187;-80
2021/12/25 08:14:33;;;;;;;15.57;13.97;;;0.90;99.90;;;;;;5057834;28;20300;-80
2021/12/25 08:17:00;;;;;;;16.13;13.70;;;0.90;99.90;;;;;;5056264;28;20226;-80
2021/12/25 08:19:26;;;;;;;15.53;13.83;;;0.90;99.90;;;;;;5054939;28;20202;-80
2021/12/25 08:21:52;;;;;;;14.57;12.90;;;0.90;99.90;;;;;;5056755;28;20167;-79
2021/12/25 08:24:18;;;;;;;18.37;13.17;;;0.80;99.90;;;;;;5055277;28;20340;-79
2021/12/25 08:26:46;;;;;;;17.00;13.20;;;0.90;99.90;;;;;;5057065;28;20230;-80
2021/12/25 08:29:14;;;;;;;15.17;13.57;;;0.90;99.90;;;;;;5055295;28;20206;-79
2021/12/25 08:31:43;;;;;;;15.00;13.27;;;0.90;99.90;;;;;;5056140;28;20206;-79
2021/12/25 08:34:09;;;;;;;12.80;11.50;;;0.90;99.90;;;;;;5056411;28;20260;-79
2021/12/25 08:36:36;;;;;;;13.93;12.13;;;0.90;99.90;;;;;;5057508;28;20179;-79
2021/12/25 08:39:04;;;;;;;16.97;12.23;;;0.80;99.90;;;;;;5056572;28;20185;-78
2021/12/25 08:41:31;;;;;;;13.77;11.40;;;0.80;99.90;;;;;;5053841;28;20311;-78
2021/12/25 08:44:05;;;;;;;12.47;11.27;;;0.90;99.90;;;;;;5055398;28;20209;-81
2021/12/25 08:46:56;;;;;;;12.13;10.77;;;0.90;99.90;;;;;;5053728;28;20170;-79
2021/12/25 08:49:24;;;;;;;12.33;10.93;;;0.90;99.90;;;;;;5058294;28;20155;-79
2021/12/25 08:51:52;;;;;;;12.43;11.13;;;0.90;99.90;;;;;;5057647;28;20236;-79
2021/12/25 08:54:18;;;;;;;11.30;10.20;;;0.90;99.90;;;;;;5056584;28;20206;-79
2021/12/25 08:56:44;;;;;;;11.70;10.50;;;0.90;99.90;;;;;;5055926;28;20646;-79
2021/12/25 08:59:10;;;;;;;12.30;10.40;;;0.90;99.90;;;;;;5055058;28;20273;-79
2021/12/25 09:01:36;;;;;;;14.03;10.87;;;0.90;99.90;;;;;;5056053;28;20597;-79
2021/12/25 09:04:03;;;;;;;11.47;10.27;;;0.90;99.90;;;;;;5055967;28;20214;-79
2021/12/25 09:06:29;;;;;;;11.60;10.40;;;0.90;99.90;;;;;;5055253;28;20183;-79
2021/12/25 09:08:55;;;;;;;11.67;10.47;;;1.00;99.90;;;;;;5055330;28;20600;-79
2021/12/25 09:11:21;;;;;;;10.97;9.90;;;1.00;99.90;;;;;;5054541;28;20176;-79
2021/12/25 09:13:50;;;;;;;13.17;10.30;;;1.00;99.90;;;;;;5055255;28;20605;-79
2021/12/25 09:16:16;;;;;;;10.23;9.23;;;1.10;99.90;;;;;;5057103;28;20170;-83
2021/12/25 09:18:42;;;;;;;10.97;9.97;;;1.00;99.90;;;;;;5054850;28;20185;-83
2021/12/25 09:21:09;;;;;;;11.43;10.23;;;1.10;99.90;;;;;;5056331;28;20166;-83
2021/12/25 09:23:35;;;;;;;10.27;9.27;;;1.00;99.90;;;;;;5054607;28;20214;-82
2021/12/25 09:26:01;;;;;;;10.03;9.10;;;1.10;99.90;;;;;;5055380;28;20284;-83
2021/12/25 09:28:27;;;;;;;9.93;8.93;;;1.00;99.90;;;;;;5056804;28;20655;-83
2021/12/25 09:30:52;;;;;;;10.10;9.20;;;1.00;99.90;;;;;;5058051;28;20198;-83
2021/12/25 09:33:18;;;;;;;9.37;8.47;;;0.90;99.90;;;;;;5059638;28;20745;-83
2021/12/25 09:35:44;;;;;;;9.17;8.27;;;1.00;99.90;;;;;;5057155;28;20277;-82
2021/12/25 09:38:10;;;;;;;9.20;8.30;;;1.00;99.90;;;;;;5057333;28;20183;-83
2021/12/25 09:40:36;;;;;;;9.73;8.57;;;0.90;99.90;;;;;;5057883;28;20190;-83
2021/12/25 09:43:04;;;;;;;9.33;8.40;;;0.90;99.90;;;;;;5058549;28;20182;-82
2021/12/25 09:45:30;;;;;;;10.30;8.57;;;0.90;99.90;;;;;;5059580;28;20214;-82
2021/12/25 09:47:55;;;;;;;10.27;7.87;;;0.80;99.90;;;;;;5057391;28;20183;-83
2021/12/25 09:50:21;;;;;;;9.80;8.80;;;0.80;99.90;;;;;;5058938;28;20273;-82
2021/12/25 09:52:47;;;;;;;9.27;8.37;;;0.80;99.90;;;;;;5057038;28;20193;-83
2021/12/25 09:55:14;;;;;;;9.30;8.40;;;0.70;99.90;;;;;;5057587;28;20206;-83
2021/12/25 09:57:40;;;;;;;8.70;7.90;;;0.70;99.90;;;;;;5056566;28;20240;-82
2021/12/25 10:00:12;;;;;;;8.63;7.83;;;0.60;99.90;;;;;;5056454;28;20597;-82
2021/12/25 10:02:49;;;;;;;8.53;7.83;;;0.60;99.90;;;;;;5056366;28;20178;-83
2021/12/25 10:05:30;;;;;;;9.30;8.40;;;0.50;99.90;;;;;;5055927;28;20218;-83
2021/12/25 10:08:15;;;;;;;8.90;8.10;;;0.50;99.90;;;;;;5056342;28;20178;-82
2021/12/25 10:10:41;;;;;;;9.27;8.47;;;0.50;99.90;;;;;;5056419;28;20228;-82
2021/12/25 10:13:22;;;;;;;8.50;7.80;;;0.40;99.90;;;;;;5056045;28;20186;-83
2021/12/25 10:15:49;;;;;;;8.60;7.90;;;0.40;99.90;;;;;;5056342;28;20194;-83
2021/12/25 10:18:15;;;;;;;19.70;14.57;;;0.40;99.90;;;;;;5056454;28;20187;-83
2021/12/25 10:20:40;;;;;;;9.23;8.43;;;0.40;99.90;;;;;;5056388;28;20231;-83
2021/12/25 10:23:16;;;;;;;9.20;8.30;;;0.50;99.90;;;;;;5057187;28;20178;-82
2021/12/25 10:25:55;;;;;;;9.50;8.57;;;0.50;99.90;;;;;;5056782;28;20198;-82
2021/12/25 10:28:28;;;;;;;8.97;8.27;;;0.50;99.90;;;;;;5057623;28;20208;-82
2021/12/25 10:31:01;;;;;;;9.20;8.37;;;0.60;99.90;;;;;;5055837;28;20170;-82
2021/12/25 10:33:32;;;;;;;11.27;8.73;;;0.70;99.90;;;;;;5056213;28;20213;-84
2021/12/25 10:36:03;;;;;;;9.67;8.67;;;0.70;99.90;;;;;;5056147;28;20201;-82
2021/12/25 10:38:29;;;;;;;9.07;8.27;;;0.70;99.90;;;;;;5055759;28;20185;-81
2021/12/25 10:41:18;;;;;;;9.43;8.57;;;0.70;99.90;;;;;;5054469;28;20186;-82
2021/12/25 10:43:43;;;;;;;9.00;8.20;;;0.70;99.90;;;;;;5055612;28;20233;-82
2021/12/25 10:46:10;;;;;;;8.70;8.00;;;0.70;99.90;;;;;;5056276;28;20178;-82
2021/12/25 10:48:36;;;;;;;8.27;7.57;;;0.70;99.90;;;;;;5055741;28;20228;-82
2021/12/25 10:51:02;;;;;;;10.40;9.47;;;0.60;99.90;;;;;;5056014;28;20225;-82
2021/12/25 10:53:32;;;;;;;10.73;8.43;;;0.50;99.90;;;;;;5055875;28;20202;-83
2021/12/25 10:56:09;;;;;;;8.30;7.60;;;0.50;99.90;;;;;;5057330;28;20229;-82
2021/12/25 10:58:34;;;;;;;8.70;8.00;;;0.50;99.90;;;;;;5055535;28;20237;-83
2021/12/25 11:01:00;;;;;;;8.53;7.83;;;0.40;99.90;;;;;;5056833;28;20643;-80
2021/12/25 11:03:30;;;;;;;9.53;8.63;;;0.40;99.90;;;;;;5056469;28;20306;-82
2021/12/25 11:06:03;;;;;;;8.77;8.07;;;0.40;99.90;;;;;;5057112;28;20181;-81
2021/12/25 11:08:29;;;;;;;9.10;8.30;;;0.40;99.90;;;;;;5055804;28;20261;-82
2021/12/25 11:11:08;;;;;;;9.70;8.90;;;0.40;99.90;;;;;;5055626;28;20206;-83
2021/12/25 11:13:41;;;;;;;9.80;8.80;;;0.30;99.90;;;;;;5057535;28;20634;-82
2021/12/25 11:16:14;;;;;;;8.40;7.70;;;0.30;99.90;;;;;;5055714;28;20182;-84
2021/12/25 11:18:49;;;;;;;9.23;8.43;;;0.30;99.90;;;;;;5055524;28;20217;-84
2021/12/25 11:21:15;;;;;;;8.77;7.87;;;0.30;99.90;;;;;;5056049;28;20174;-85
2021/12/25 11:23:42;;;;;;;8.70;7.90;;;0.30;99.90;;;;;;5056011;28;20298;-87
2021/12/25 11:26:08;;;;;;;8.10;7.40;;;0.40;99.90;;;;;;5055130;28;20198;-85
2021/12/25 11:28:35;;;;;;;8.07;7.47;;;0.50;99.90;;;;;;5055570;28;20572;-85
2021/12/25 11:31:00;;;;;;;7.77;7.10;;;0.50;99.90;;;;;;5055405;28;20181;-85
2021/12/25 11:33:26;;;;;;;8.13;7.53;;;0.50;99.90;;;;;;5055301;28;20207;-85
2021/12/25 11:35:52;;;;;;;8.57;7.77;;;0.50;99.90;;;;;;5054909;28;20547;-85
2021/12/25 11:38:18;;;;;;;7.90;7.30;;;0.60;99.90;;;;;;5054975;28;20206;-82
2021/12/25 11:40:50;;;;;;;8.40;7.80;;;0.60;99.90;;;;;;5054802;28;20265;-85
2021/12/25 11:43:36;;;;;;;8.03;7.33;;;0.70;99.90;;;;;;5055514;28;20178;-83
2021/12/25 11:46:06;;;;;;;7.83;7.03;;;0.90;99.90;;;;;;5054650;28;20171;-84
2021/12/25 11:48:32;;;;;;;7.17;6.70;;;1.10;99.90;;;;;;5054805;28;20185;-83
2021/12/25 11:50:57;;;;;;;7.63;6.97;;;1.30;99.90;;;;;;5054682;28;20178;-83
2021/12/25 11:59:05;;;;;;;7.33;6.73;;;2.10;99.90;;;;;;5055831;28;20174;-83
2021/12/25 12:01:53;;;;;;;6.40;6.00;;;2.40;99.90;;;;;;5049251;28;20186;-83
2021/12/25 12:04:21;;;;;;;6.73;6.30;;;2.60;99.90;;;;;;5054006;28;20744;-80
2021/12/25 12:06:47;;;;;;;6.73;6.13;;;2.80;99.90;;;;;;5054886;28;20171;-83
2021/12/25 12:09:24;;;;;;;6.63;6.03;;;2.90;99.90;;;;;;5055315;28;20178;-86
2021/12/25 12:12:11;;;;;;;6.20;5.80;;;3.00;99.90;;;;;;5055050;28;20170;-85
2021/12/25 12:14:38;;;;;;;6.70;6.30;;;3.10;99.90;;;;;;5054823;28;20202;-83
2021/12/25 12:17:24;;;;;;;6.43;6.00;;;3.10;99.90;;;;;;5055340;28;20541;-83
2021/12/25 12:19:54;;;;;;;6.63;6.23;;;3.20;99.90;;;;;;5055011;28;20178;-83
2021/12/25 12:25:41;;;;;;;6.70;6.30;;;3.20;99.90;;;;;;5044061;28;20229;-83
2021/12/25 12:28:07;;;;;;;6.47;6.00;;;3.30;99.90;;;;;;5057039;28;20174;-85
2021/12/25 12:30:52;;;;;;;6.47;6.07;;;3.30;99.90;;;;;;5056222;28;20183;-85
2021/12/25 12:33:17;;;;;;;6.13;5.73;;;3.40;99.90;;;;;;5056949;28;20182;-85
2021/12/25 12:35:49;;;;;;;7.03;6.53;;;3.40;99.90;;;;;;5061208;28;20175;-86
2021/12/25 12:38:43;;;;;;;6.57;6.07;;;3.50;99.90;;;;;;5053622;28;20552;-85
2021/12/25 12:41:27;;;;;;;6.67;6.07;;;3.50;99.90;;;;;;5055259;28;20186;-85
2021/12/25 12:44:09;;;;;;;7.17;6.57;;;3.40;99.90;;;;;;5053694;28;20210;-85
2021/12/25 12:46:58;;;;;;;6.77;6.20;;;3.30;99.90;;;;;;5054276;28;20274;-85
2021/12/25 12:49:34;;;;;;;6.43;6.03;;;3.30;99.90;;;;;;5055037;28;20155;-84
2021/12/25 12:52:20;;;;;;;6.60;6.10;;;3.30;99.90;;;;;;5054286;28;20257;-84
2021/12/25 12:54:45;;;;;;;6.73;6.30;;;3.30;99.90;;;;;;5054223;28;20679;-84
2021/12/25 12:57:18;;;;;;;6.00;5.60;;;3.20;99.90;;;;;;5054902;28;20186;-82
2021/12/25 12:59:53;;;;;;;6.60;6.10;;;3.20;99.90;;;;;;5054294;28;20177;-82
2021/12/25 13:02:21;;;;;;;6.57;6.10;;;3.20;99.90;;;;;;5054390;28;20181;-82
2021/12/25 13:04:57;;;;;;;7.10;6.40;;;3.20;99.90;;;;;;5054304;28;20229;-82
2021/12/25 13:07:27;;;;;;;6.37;5.97;;;3.20;99.90;;;;;;5053909;28;20174;-82
2021/12/25 13:10:26;;;;;;;6.47;6.00;;;3.20;99.90;;;;;;5053664;28;20228;-82
2021/12/25 13:13:04;;;;;;;7.83;6.53;;;3.30;99.90;;;;;;5054676;28;20190;-85
2021/12/25 13:15:33;;;;;;;6.70;6.20;;;3.20;99.90;;;;;;5056416;28;20174;-85
2021/12/25 13:18:02;;;;;;;6.57;6.17;;;3.20;99.90;;;;;;5056144;28;20174;-85
2021/12/25 13:20:44;;;;;;;6.53;5.93;;;3.20;99.90;;;;;;5054435;28;20665;-85
2021/12/25 13:23:23;;;;;;;6.33;5.93;;;3.20;99.90;;;;;;5054154;28;20178;-85
2021/12/25 13:26:00;;;;;;;6.63;5.97;;;3.20;99.90;;;;;;5056758;28;20205;-85
2021/12/25 13:28:32;;;;;;;6.30;5.90;;;3.20;99.90;;;;;;5055591;28;20171;-85
2021/12/25 13:31:12;;;;;;;5.87;5.50;;;3.30;99.90;;;;;;5055175;28;20182;-85
2021/12/25 13:33:47;;;;;;;6.93;6.43;;;3.20;99.90;;;;;;5056308;28;20255;-85
2021/12/25 13:36:20;;;;;;;6.70;6.20;;;3.20;99.90;;;;;;5056684;28;20182;-85
2021/12/25 13:38:59;;;;;;;6.70;6.20;;;3.30;99.90;;;;;;5054926;28;20202;-85
2021/12/25 13:41:34;;;;;;;6.13;5.70;;;3.30;99.90;;;;;;5054373;28;20213;-85
2021/12/25 13:44:05;;;;;;;6.40;6.00;;;3.20;99.90;;;;;;5053488;28;20537;-82
2021/12/25 13:46:40;;;;;;;6.37;5.97;;;3.00;99.90;;;;;;5055171;28;20170;-84
2021/12/25 13:49:06;;;;;;;6.30;5.90;;;2.90;99.90;;;;;;5054564;28;20179;-83
2021/12/25 13:51:32;;;;;;;6.07;5.67;;;2.90;99.90;;;;;;5053645;28;20175;-85
2021/12/25 13:53:58;;;;;;;6.53;6.13;;;3.00;99.90;;;;;;5054142;28;20267;-85
2021/12/25 13:56:24;;;;;;;6.00;5.60;;;2.80;99.90;;;;;;5054393;28;20182;-85
2021/12/25 13:58:50;;;;;;;6.77;6.27;;;2.70;99.90;;;;;;5055526;28;20178;-86
2021/12/25 14:01:17;;;;;;;7.10;6.50;;;2.70;99.90;;;;;;5056949;28;20177;-87
2021/12/25 14:03:43;;;;;;;6.40;6.00;;;2.60;99.90;;;;;;5054901;28;20218;-87
2021/12/25 14:06:09;;;;;;;6.17;5.77;;;2.60;99.90;;;;;;5055098;28;20178;-89
2021/12/25 14:08:35;;;;;;;6.40;6.00;;;2.60;99.90;;;;;;5055232;28;20216;-90
2021/12/25 14:11:07;;;;;;;6.57;6.07;;;2.50;99.90;;;;;;5056082;28;20159;-92
2021/12/25 14:13:35;;;;;;;6.50;6.00;;;2.50;99.90;;;;;;5056722;28;20201;-91
2021/12/25 14:16:02;;;;;;;5.90;5.60;;;2.50;99.90;;;;;;5058483;28;20193;-92